createdAt,value
2022-09-04T00:04:17.363Z,99966.92
2022-09-04T00:14:29.700Z,99975.06
2022-09-04T00:24:40.971Z,99978.75
2022-09-04T00:34:59.926Z,99987.52
2022-09-04T00:45:27.754Z,99990.65
2022-09-04T00:55:52.666Z,99990.59
2022-09-04T01:06:14.481Z,99990.10
2022-09-04T01:16:26.826Z,99991.19
2022-09-04T01:26:41.424Z,99994.80
2022-09-04T01:36:56.905Z,100001.05
2022-09-04T01:47:12.453Z,99992.64
2022-09-04T01:57:31.200Z,99997.15
2022-09-04T02:07:46.770Z,99996.11
2022-09-04T02:18:11.623Z,100000.98
2022-09-04T02:28:30.185Z,100001.02
2022-09-04T02:38:44.049Z,99996.63
2022-09-04T02:49:03.566Z,100001.07
2022-09-04T02:59:32.548Z,100003.33
2022-09-04T03:09:44.541Z,100006.86
2022-09-04T03:19:57.283Z,100008.38
2022-09-04T03:30:07.727Z,100009.02
2022-09-04T03:40:34.937Z,100008.21
2022-09-04T03:50:49.892Z,100017.75
2022-09-04T04:01:06.744Z,100031.15
2022-09-04T04:11:47.944Z,100039.33
2022-09-04T04:22:10.205Z,100045.30
2022-09-04T04:32:34.014Z,100041.02
2022-09-04T04:42:48.192Z,100046.77
2022-09-04T04:53:03.614Z,100048.20
2022-09-04T05:03:19.170Z,100061.73
2022-09-04T05:13:28.361Z,100068.98
2022-09-04T05:23:42.744Z,100076.09
2022-09-04T05:33:57.585Z,100068.32
2022-09-04T05:44:16.042Z,100064.05
2022-09-04T05:54:54.756Z,100067.08
2022-09-04T06:05:21.268Z,100082.85
2022-09-04T06:15:38.142Z,100087.09
2022-09-04T06:26:01.091Z,100088.95
2022-09-04T06:36:38.885Z,100098.41
2022-09-04T06:46:51.659Z,100099.28
2022-09-04T06:57:14.323Z,100103.95
2022-09-04T07:07:28.568Z,100106.22
2022-09-04T07:17:39.485Z,100108.23
2022-09-04T07:28:02.597Z,100115.26
2022-09-04T07:38:17.570Z,100129.93
2022-09-04T07:48:30.494Z,100137.98
2022-09-04T07:58:55.071Z,100144.33
2022-09-04T08:09:33.946Z,100149.16
2022-09-04T08:19:49.481Z,100152.07
2022-09-04T08:30:04.958Z,100153.55
2022-09-04T08:40:45.415Z,100162.29
2022-09-04T08:51:29.679Z,100172.65
2022-09-04T09:01:58.010Z,100168.90
2022-09-04T09:12:26.592Z,100177.14
2022-09-04T09:23:21.009Z,100183.52
2022-09-04T09:34:02.878Z,100197.19
2022-09-04T09:44:39.847Z,100188.54
2022-09-04T09:55:23.939Z,100185.33
2022-09-04T10:05:57.188Z,100196.38
2022-09-04T10:16:45.287Z,100189.98
2022-09-04T10:27:29.920Z,100193.13
2022-09-04T10:37:54.235Z,100195.59
2022-09-04T10:48:31.096Z,100189.61
2022-09-04T10:58:50.636Z,100194.59
2022-09-04T11:09:36.607Z,100193.13
2022-09-04T11:20:21.902Z,100194.61
2022-09-04T11:30:36.326Z,100193.28
2022-09-04T11:41:21.622Z,100195.73
2022-09-04T11:51:49.463Z,100202.75
2022-09-04T12:02:02.459Z,100196.18
2022-09-04T12:12:33.259Z,100190.05
2022-09-04T12:23:02.791Z,100181.92
2022-09-04T12:33:26.730Z,100182.26
2022-09-04T12:43:50.786Z,100178.33
2022-09-04T12:54:25.048Z,100167.65
2022-09-04T13:04:39.844Z,100171.73
2022-09-04T13:15:19.418Z,100181.67
2022-09-04T13:25:42.392Z,100186.08
2022-09-04T13:36:11.435Z,100189.17
2022-09-04T13:46:21.198Z,100188.92
2022-09-04T13:56:33.460Z,100189.73
2022-09-04T14:06:40.146Z,100185.44
2022-09-04T14:16:46.116Z,100193.98
2022-09-04T14:27:01.014Z,100190.66
2022-09-04T14:37:16.226Z,100178.34
2022-09-04T14:47:34.717Z,100187.02
2022-09-04T14:57:44.027Z,100191.77
2022-09-04T15:08:00.280Z,100194.98
2022-09-04T15:18:15.986Z,100203.67
2022-09-04T15:28:30.139Z,100204.63
2022-09-04T15:38:36.910Z,100205.50
2022-09-04T15:48:53.504Z,100209.10
2022-09-04T15:59:08.535Z,100207.02
2022-09-04T16:09:24.394Z,100208.88
2022-09-04T16:19:33.772Z,100208.48
2022-09-04T16:29:46.358Z,100215.77
2022-09-04T16:40:13.645Z,100226.44
2022-09-04T16:50:27.357Z,100239.56
2022-09-04T17:00:50.322Z,100243.67
2022-09-04T17:11:05.588Z,100252.67
2022-09-04T17:28:14.894Z,100261.56
2022-09-04T17:32:57.000Z,100262.24
2022-09-04T17:43:12.951Z,100274.60
2022-09-04T17:53:33.218Z,100287.70
2022-09-04T18:04:19.721Z,100295.35
2022-09-04T18:14:24.388Z,100310.93
2022-09-04T18:24:35.843Z,100322.98
2022-09-04T18:37:19.204Z,100338.38
2022-09-04T18:50:44.951Z,100341.68
2022-09-04T18:55:50.061Z,100346.92
2022-09-04T19:06:00.868Z,100352.40
2022-09-04T19:16:11.865Z,100358.70
2022-09-04T19:26:27.942Z,100369.10
2022-09-04T19:36:38.484Z,100377.00
2022-09-04T19:47:01.755Z,100387.53
2022-09-04T19:57:32.036Z,100390.29
2022-09-04T20:07:47.055Z,100394.58
2022-09-04T20:18:08.494Z,100400.80
2022-09-04T20:28:32.576Z,100409.13
2022-09-04T20:38:46.452Z,100413.27
2022-09-04T20:53:06.019Z,100415.41
2022-09-04T21:03:12.855Z,100423.40
2022-09-04T21:10:17.235Z,100436.02
2022-09-04T21:21:00.596Z,100445.56
2022-09-04T21:31:14.253Z,100450.42
2022-09-04T21:41:33.102Z,100462.58
2022-09-04T21:52:02.658Z,100460.76
2022-09-04T22:02:38.829Z,100463.42
2022-09-04T22:13:28.353Z,100474.80
2022-09-04T22:23:56.423Z,100477.45
2022-09-04T22:34:41.334Z,100476.73
2022-09-04T22:45:09.731Z,100481.75
2022-09-04T22:56:00.698Z,100481.93
2022-09-04T23:10:34.028Z,100487.44
2022-09-04T23:17:23.164Z,100498.32
2022-09-04T23:27:34.129Z,100498.25
2022-09-04T23:38:00.253Z,100499.83
2022-09-04T23:48:25.488Z,100505.23
2022-09-04T23:59:07.309Z,100506.09
